Walhalla — FGH3639 — position and weather

sailwx.info

Track history (hours):
 
Tides and Currents Weather Stations Pressure Air Temp Water Temp Dewpoint Dewpoint Depression Visibility Wind Speed Wind Dir Waves Ship Positions

Walhalla

Last reported at 2017-Aug-16 18:22 UTC. Time now 2017-Sep-22 08:34 UTC.
Position N 48°35' W 004°46'.
Warning: this ship's position is 36 days out of date.

Length 12 m.

Type: Sailing vessel. MMSI: 227088160.

Date/timePositionNaut miles runAvg speedWind from/ knotsBaromVisibWave heightAir tempDewpointWater temp
2017-Aug-16 18:22N 48°35' W 004°46'3 8.1
2017-Aug-16 18:00N 48°33' W 004°49'3 6.5
2017-Aug-16 17:30N 48°30' W 004°50'3 6.4
2017-Aug-16 17:00N 48°27' W 004°49'5 5.7
2017-Aug-16 16:09N 48°22' W 004°49'1 4.5
2017-Aug-16 15:58N 48°21' W 004°48'2 4.4
2017-Aug-16 15:30N 48°19' W 004°47'3 6.2
2017-Aug-16 15:00N 48°19' W 004°42'4 7.2
2017-Aug-16 14:30N 48°18' W 004°37'2 0.1
2017-Aug-15 16:01N 48°17' W 004°35'0 0.1
2017-Aug-15 15:58N 48°17' W 004°35'2 3.5
2017-Aug-15 15:30N 48°17' W 004°38'2 4.9
2017-Aug-15 15:00N 48°16' W 004°40'2 3.7
2017-Aug-15 14:30N 48°14' W 004°41'2 4.3
2017-Aug-15 14:00N 48°12' W 004°43'2 4.9
2017-Aug-15 13:30N 48°10' W 004°44'3 5.1
2017-Aug-15 13:00N 48°07' W 004°45'3 5.1
2017-Aug-15 12:30N 48°05' W 004°47'2 4.8
2017-Aug-15 12:00N 48°02' W 004°48'2 3.5
2017-Aug-15 11:30N 48°01' W 004°48'  
Track history (hours):
 
Tides and Currents Weather Stations Pressure Air Temp Water Temp Dewpoint Dewpoint Depression Visibility Wind Speed Wind Dir Waves Ship Positions

Walhalla

Last reported at 2017-Aug-16 18:22 UTC. Time now 2017-Sep-22 08:34 UTC.
Position N 48°35' W 004°46'.
Warning: this ship's position is 36 days out of date.

Length 12 m.

Type: Sailing vessel. MMSI: 227088160.

Date/timePositionNaut miles runAvg speedWind from/ knotsBaromVisibWave heightAir tempDewpointWater temp
2017-Aug-16 18:22N 48°35' W 004°46'3 8.1
2017-Aug-16 18:00N 48°33' W 004°49'3 6.5
2017-Aug-16 17:30N 48°30' W 004°50'3 6.4
2017-Aug-16 17:00N 48°27' W 004°49'5 5.7
2017-Aug-16 16:09N 48°22' W 004°49'1 4.5
2017-Aug-16 15:58N 48°21' W 004°48'2 4.4
2017-Aug-16 15:30N 48°19' W 004°47'3 6.2
2017-Aug-16 15:00N 48°19' W 004°42'4 7.2
2017-Aug-16 14:30N 48°18' W 004°37'2 0.1
2017-Aug-15 16:01N 48°17' W 004°35'0 0.1
2017-Aug-15 15:58N 48°17' W 004°35'2 3.5
2017-Aug-15 15:30N 48°17' W 004°38'2 4.9
2017-Aug-15 15:00N 48°16' W 004°40'2 3.7
2017-Aug-15 14:30N 48°14' W 004°41'2 4.3
2017-Aug-15 14:00N 48°12' W 004°43'2 4.9
2017-Aug-15 13:30N 48°10' W 004°44'3 5.1
2017-Aug-15 13:00N 48°07' W 004°45'3 5.1
2017-Aug-15 12:30N 48°05' W 004°47'2 4.8
2017-Aug-15 12:00N 48°02' W 004°48'2 3.5
2017-Aug-15 11:30N 48°01' W 004°48'  

Dump ship's entire track history